Time;durP1;ratioP1;P1;durP2;ratioP2;P2;SDS_P1;SDS_P2;PMS_P1;PMS_P2;Temp;Humidity;BMP_temperature;BMP_pressure;BME280_temperature;BME280_humidity;BME280_pressure;Samples;Min_cycle;Max_cycle;Signal;HPM_P1;HPM_P2
2021/12/12 00:01:34;;;;;;;17.40;3.58;;;;;;;16.58;67.78;100583.66;4900829;29;20053;-93
2021/12/12 00:04:10;;;;;;;7.80;3.10;;;;;;;16.61;67.78;100583.38;4881752;29;20037;-94
2021/12/12 00:06:38;;;;;;;16.58;4.15;;;;;;;16.66;67.51;100591.75;4886171;29;20068;-93
2021/12/12 00:09:12;;;;;;;12.15;3.38;;;;;;;16.54;68.11;100592.03;4900159;29;20037;-93
2021/12/12 00:11:39;;;;;;;14.35;4.25;;;;;;;16.54;68.12;100586.72;4899970;29;20067;-93
2021/12/12 00:14:10;;;;;;;15.95;3.67;;;;;;;16.63;67.67;100597.34;4900564;29;20560;-93
2021/12/12 00:16:37;;;;;;;11.97;3.70;;;;;;;16.75;67.67;100595.41;4900309;29;20075;-93
2021/12/12 00:19:03;;;;;;;12.45;2.90;;;;;;;16.73;67.39;100589.41;4900610;29;20033;-93
2021/12/12 00:21:31;;;;;;;12.07;4.07;;;;;;;16.81;67.56;100591.34;4900253;29;20024;-93
2021/12/12 00:23:57;;;;;;;12.07;3.47;;;;;;;16.64;67.95;100593.69;4900112;29;20057;-93
2021/12/12 00:26:23;;;;;;;12.77;3.75;;;;;;;16.73;67.64;100589.41;4898910;29;20028;-93
2021/12/12 00:28:49;;;;;;;8.55;3.80;;;;;;;16.81;67.28;100588.69;4899186;29;20029;-94
2021/12/12 00:31:17;;;;;;;16.02;4.18;;;;;;;16.68;67.80;100585.47;4899731;29;20394;-94
2021/12/12 00:33:48;;;;;;;18.60;3.88;;;;;;;16.65;67.90;100579.47;4899819;29;20032;-93
2021/12/12 00:36:17;;;;;;;7.65;2.85;;;;;;;16.77;67.66;100577.53;4899707;29;20052;-93
2021/12/12 00:38:46;;;;;;;11.50;3.60;;;;;;;16.78;67.60;100579.19;4899917;29;20053;-93
2021/12/12 00:41:15;;;;;;;9.05;2.60;;;;;;;16.83;67.28;100581.47;4899940;29;20032;-94
2021/12/12 00:43:47;;;;;;;19.10;3.42;;;;;;;16.82;67.27;100579.78;4899772;29;20099;-93
2021/12/12 00:46:15;;;;;;;13.73;4.22;;;;;;;16.63;67.91;100591.22;4899640;29;20036;-93
2021/12/12 00:48:44;;;;;;;18.77;3.20;;;;;;;16.61;68.29;100583.38;4898695;29;20591;-93
2021/12/12 00:51:13;;;;;;;14.15;2.88;;;;;;;16.65;67.84;100583.97;4899587;29;20029;-93
2021/12/12 00:53:39;;;;;;;10.85;3.22;;;;;;;16.72;67.57;100584.22;4899809;29;20064;-93
2021/12/12 00:56:05;;;;;;;7.95;2.53;;;;;;;16.76;68.12;100585.63;4899671;29;20052;-93
2021/12/12 00:58:31;;;;;;;14.82;3.05;;;;;;;16.64;67.63;100576.97;4899715;29;20491;-93
2021/12/12 01:01:02;;;;;;;11.20;3.78;;;;;;;16.82;67.57;100579.78;4899891;29;20182;-93
2021/12/12 01:03:34;;;;;;;9.15;2.60;;;;;;;16.70;67.40;100578.22;4899206;29;20056;-93
2021/12/12 01:06:02;;;;;;;19.95;4.30;;;;;;;16.65;67.84;100574.19;4896779;29;20037;-93
2021/12/12 01:08:29;;;;;;;12.52;2.80;;;;;;;16.70;67.61;100580.88;4882261;29;20029;-92
2021/12/12 01:11:16;;;;;;;8.25;2.70;;;;;;;16.82;67.62;100582.44;4888480;29;20032;-93
2021/12/12 01:13:42;;;;;;;12.95;2.83;;;;;;;16.58;68.34;100583.66;4899637;29;20029;-95
2021/12/12 01:16:22;;;;;;;11.30;2.65;;;;;;;16.63;68.35;100578.78;4899375;29;20040;-94
2021/12/12 01:18:52;;;;;;;10.75;2.95;;;;;;;16.86;66.97;100581.16;4899359;29;20384;-94
2021/12/12 01:21:28;;;;;;;8.47;2.83;;;;;;;16.75;67.85;100589.25;4897275;29;20025;-94
2021/12/12 01:24:03;;;;;;;11.13;3.13;;;;;;;16.71;67.86;100583.41;4899521;29;20071;-95
2021/12/12 01:26:30;;;;;;;15.73;2.45;;;;;;;16.75;67.91;100581.31;4898976;29;20020;-94
2021/12/12 01:28:58;;;;;;;87.25;49.88;;;;;;;16.64;68.56;100583.09;4899382;29;20052;-93
2021/12/12 01:31:29;;;;;;;7.78;2.33;;;;;;;16.72;68.06;100585.06;4898967;29;20029;-93
2021/12/12 01:34:13;;;;;;;8.02;2.35;;;;;;;16.83;67.77;100586.78;4899523;29;20132;-94
2021/12/12 01:37:06;;;;;;;6.20;2.13;;;;;;;16.74;67.55;100591.06;4897620;29;20044;-93
2021/12/12 01:39:36;;;;;;;7.88;1.83;;;;;;;16.80;67.83;100593.13;4899190;29;20048;-93
2021/12/12 01:42:07;;;;;;;10.80;2.40;;;;;;;16.84;67.79;100593.75;4899034;29;20078;-93
2021/12/12 01:44:37;;;;;;;11.57;2.55;;;;;;;16.83;67.60;100594.72;4899194;29;20578;-93
2021/12/12 01:47:13;;;;;;;11.48;2.13;;;;;;;16.80;67.92;100598.44;4898803;29;20033;-93
2021/12/12 01:49:45;;;;;;;3.88;1.48;;;;;;;16.75;68.33;100592.75;4899021;29;20524;-93
2021/12/12 01:52:16;;;;;;;5.47;1.95;;;;;;;16.78;68.36;100600.41;4898251;29;20039;-93
2021/12/12 01:54:47;;;;;;;8.60;2.33;;;;;;;16.69;68.89;100600.44;4899025;29;20191;-93
2021/12/12 01:57:17;;;;;;;10.57;2.35;;;;;;;16.68;68.40;100607.53;4897456;29;20086;-93
2021/12/12 01:59:46;;;;;;;8.13;2.55;;;;;;;16.84;68.55;100605.19;4898886;29;20035;-94
2021/12/12 02:02:16;;;;;;;9.40;3.17;;;;;;;16.76;68.64;100601.53;4898466;29;20012;-94
2021/12/12 02:04:45;;;;;;;8.45;2.40;;;;;;;16.73;68.62;100602.66;4898503;29;20004;-94
2021/12/12 02:07:16;;;;;;;5.97;2.17;;;;;;;16.69;68.79;100605.72;4898612;29;20112;-93
2021/12/12 02:09:42;;;;;;;6.90;2.40;;;;;;;16.75;68.85;100600.69;4898811;29;20042;-94
2021/12/12 02:12:09;;;;;;;6.43;1.85;;;;;;;16.74;68.73;100600.81;4897469;29;20502;-94
2021/12/12 02:14:37;;;;;;;6.43;2.38;;;;;;;16.73;69.28;100612.44;4897966;29;20558;-93
2021/12/12 02:17:19;;;;;;;7.45;2.00;;;;;;;16.81;68.80;100612.56;4898443;29;20033;-94
2021/12/12 02:20:05;;;;;;;4.68;1.77;;;;;;;16.72;69.40;100618.69;4898251;29;20028;-93
2021/12/12 02:35:59;;;;;;;5.93;1.58;;;;;;;16.80;69.36;100629.44;4903712;29;20110;-92
2021/12/12 02:38:29;;;;;;;6.18;2.22;;;;;;;16.87;69.23;100627.94;4904509;29;20021;-94
2021/12/12 02:40:59;;;;;;;6.95;1.98;;;;;;;16.85;69.36;100633.38;4904121;29;20040;-92
2021/12/12 02:43:27;;;;;;;3.53;1.30;;;;;;;16.89;69.41;100628.63;4904358;29;20387;-93
2021/12/12 02:45:55;;;;;;;2.80;1.40;;;;;;;16.82;69.74;100635.47;4903870;29;20035;-93
2021/12/12 02:48:28;;;;;;;2.78;1.27;;;;;;;16.99;69.33;100629.47;4903223;29;20025;-93
2021/12/12 02:50:56;;;;;;;2.13;1.10;;;;;;;16.89;69.35;100633.13;4902843;29;20236;-92
2021/12/12 02:53:45;;;;;;;4.22;1.30;;;;;;;16.89;69.63;100633.94;4903235;29;20021;-92
2021/12/12 02:56:15;;;;;;;2.50;0.95;;;;;;;16.90;69.53;100629.47;4903147;29;20049;-92
2021/12/12 02:58:42;;;;;;;2.13;0.90;;;;;;;16.86;69.93;100634.22;4903398;29;20043;-91
2021/12/12 03:01:44;;;;;;;1.63;0.95;;;;;;;16.89;69.97;100639.25;4903030;29;20020;-92
2021/12/12 03:04:10;;;;;;;3.38;1.27;;;;;;;16.91;69.55;100637.28;4904060;29;20028;-91
2021/12/12 03:06:39;;;;;;;1.60;0.70;;;;;;;17.02;69.69;100638.94;4903959;29;20033;-92
2021/12/12 03:09:18;;;;;;;1.58;1.02;;;;;;;16.92;69.91;100636.31;4903728;29;20520;-91
2021/12/12 03:11:45;;;;;;;2.22;0.98;;;;;;;16.85;69.84;100648.47;4902989;29;20373;-92
2021/12/12 03:14:13;;;;;;;1.73;0.98;;;;;;;16.94;69.94;100644.97;4903388;29;20028;-91
2021/12/12 03:16:39;;;;;;;1.00;0.90;;;;;;;16.78;70.37;100647.31;4902847;29;20051;-92
2021/12/12 03:19:05;;;;;;;0.98;0.88;;;;;;;16.87;70.10;100646.50;4903634;29;20029;-92
2021/12/12 03:21:35;;;;;;;2.55;1.02;;;;;;;16.85;70.29;100651.13;4903637;29;20032;-92
2021/12/12 03:24:19;;;;;;;2.85;0.90;;;;;;;16.90;70.15;100645.38;4904260;29;20116;-91
2021/12/12 03:26:47;;;;;;;1.27;0.90;;;;;;;16.81;70.60;100649.69;4904266;29;20033;-93
2021/12/12 03:29:14;;;;;;;1.60;0.82;;;;;;;17.04;70.04;100647.59;4902906;29;20059;-92
2021/12/12 03:31:45;;;;;;;2.53;0.88;;;;;;;16.93;69.96;100645.13;4903733;29;20040;-92
2021/12/12 03:34:15;;;;;;;2.03;0.80;;;;;;;16.85;70.40;100640.50;4904167;29;20027;-92
2021/12/12 03:36:42;;;;;;;1.83;0.60;;;;;;;17.03;69.92;100645.94;4903869;29;20119;-93
2021/12/12 03:39:12;;;;;;;1.20;0.70;;;;;;;16.98;69.63;100642.88;4903973;29;20025;-92
2021/12/12 03:41:40;;;;;;;1.13;0.60;;;;;;;16.92;70.31;100651.38;4903364;29;20373;-92
2021/12/12 03:44:11;;;;;;;0.90;0.70;;;;;;;16.94;70.15;100646.78;4902570;29;20052;-92
2021/12/12 03:46:36;;;;;;;0.80;0.80;;;;;;;17.00;69.95;100647.06;4900961;29;20522;-92
2021/12/12 03:49:04;;;;;;;1.45;0.70;;;;;;;17.00;70.05;100649.72;4909098;29;20033;-96
2021/12/12 03:51:33;;;;;;;0.77;0.77;;;;;;;16.99;70.28;100648.03;4905687;29;20060;-93
2021/12/12 03:53:59;;;;;;;0.68;0.68;;;;;;;16.95;70.62;100648.47;4897422;29;20028;-93
2021/12/12 03:56:25;;;;;;;0.82;0.60;;;;;;;16.98;70.50;100646.38;4900632;29;20025;-93
2021/12/12 03:58:52;;;;;;;0.80;0.50;;;;;;;17.05;70.19;100649.31;4900521;29;20032;-92
2021/12/12 04:01:27;;;;;;;1.17;0.50;;;;;;;17.05;70.56;100655.44;4901190;29;20036;-93
2021/12/12 04:03:57;;;;;;;1.00;0.40;;;;;;;17.00;70.35;100648.88;4900850;29;20020;-93
2021/12/12 04:06:25;;;;;;;0.68;0.55;;;;;;;17.08;70.12;100657.00;4900084;29;20036;-92
2021/12/12 04:08:52;;;;;;;1.33;0.40;;;;;;;17.05;70.22;100644.81;4900538;29;20016;-94
2021/12/12 04:11:26;;;;;;;0.38;0.32;;;;;;;17.07;70.00;100649.16;4899393;29;20056;-92
2021/12/12 04:13:55;;;;;;;0.73;0.40;;;;;;;17.19;69.95;100651.50;4900750;29;20035;-93
2021/12/12 04:16:21;;;;;;;1.65;0.60;;;;;;;17.09;70.44;100652.50;4900303;29;20032;-93
2021/12/12 04:18:46;;;;;;;1.27;0.40;;;;;;;17.23;69.77;100662.69;4900218;29;20039;-92
2021/12/12 04:21:13;;;;;;;1.00;0.20;;;;;;;17.10;70.12;100659.47;4899868;29;20032;-93
2021/12/12 04:23:40;;;;;;;0.35;0.30;;;;;;;17.10;70.31;100657.69;4900052;29;20060;-93
2021/12/12 04:26:15;;;;;;;1.30;0.30;;;;;;;17.15;70.25;100657.25;4900411;29;20028;-92
2021/12/12 04:28:40;;;;;;;0.30;0.30;;;;;;;17.16;70.14;100656.25;4900554;29;20040;-93
2021/12/12 04:31:06;;;;;;;0.38;0.28;;;;;;;17.22;69.87;100661.84;4900626;29;20024;-92
2021/12/12 04:33:31;;;;;;;0.77;0.20;;;;;;;16.69;71.66;100664.88;4900004;29;20021;-92
2021/12/12 04:35:58;;;;;;;0.90;0.20;;;;;;;17.07;70.51;100663.25;4898268;29;20505;-92
2021/12/12 04:38:24;;;;;;;1.38;0.30;;;;;;;17.13;70.33;100668.00;4899880;29;20035;-92
2021/12/12 04:40:49;;;;;;;0.95;0.20;;;;;;;17.10;70.32;100668.31;4900016;29;20029;-91
2021/12/12 04:43:15;;;;;;;0.75;0.20;;;;;;;17.15;70.35;100663.38;4899831;29;20391;-92
2021/12/12 04:46:02;;;;;;;1.13;0.15;;;;;;;17.06;70.71;100669.53;4899858;29;20017;-92
2021/12/12 04:51:33;;;;;;;3.42;0.40;;;;;;;17.07;70.64;100665.91;4899615;29;20095;-92
2021/12/12 04:54:01;;;;;;;;;;;;;;;17.02;70.81;100670.78;4899848;29;20104;-92
2021/12/12 04:56:52;;;;;;;1.13;0.40;;;;;;;17.15;70.22;100678.47;4899660;29;19938;-93
2021/12/12 04:59:31;;;;;;;4.88;0.30;;;;;;;17.14;70.09;100682.97;4898537;29;20044;-92
2021/12/12 05:02:06;;;;;;;2.03;0.40;;;;;;;17.08;70.32;100685.31;4899635;29;20032;-93
2021/12/12 05:04:42;;;;;;;0.85;0.30;;;;;;;17.06;70.53;100682.78;4899376;29;20593;-92
2021/12/12 05:07:24;;;;;;;4.18;0.43;;;;;;;17.05;70.22;100686.44;4899419;29;20539;-93
2021/12/12 05:10:02;;;;;;;3.75;0.57;;;;;;;17.02;70.58;100689.34;4899057;29;20131;-93
2021/12/12 05:12:55;;;;;;;2.20;0.47;;;;;;;17.03;70.55;100691.88;4899014;29;20036;-93
2021/12/12 05:15:28;;;;;;;4.95;0.82;;;;;;;16.95;70.63;100694.38;4898093;29;20518;-93
2021/12/12 05:18:10;;;;;;;1.85;0.38;;;;;;;17.10;70.10;100691.31;4898800;29;20454;-92
2021/12/12 05:20:41;;;;;;;4.70;0.65;;;;;;;17.13;70.09;100701.66;4899042;29;20029;-93
2021/12/12 05:23:11;;;;;;;3.42;0.40;;;;;;;17.03;70.74;100704.31;4899020;29;20059;-93
2021/12/12 05:25:49;;;;;;;1.90;0.35;;;;;;;17.09;70.32;100708.22;4898421;29;20391;-93
2021/12/12 05:28:17;;;;;;;3.70;0.82;;;;;;;17.11;70.14;100708.91;4898543;29;20028;-93
2021/12/12 05:30:43;;;;;;;3.10;0.45;;;;;;;17.15;70.15;100703.19;4898411;29;20033;-92
2021/12/12 05:33:14;;;;;;;2.80;0.65;;;;;;;17.14;69.99;100708.63;4899051;29;20115;-93
2021/12/12 05:35:40;;;;;;;4.38;0.95;;;;;;;17.21;70.08;100713.25;4898655;29;20115;-92
2021/12/12 05:38:07;;;;;;;6.75;0.90;;;;;;;17.26;69.91;100720.81;4898438;29;20117;-93
2021/12/12 05:40:36;;;;;;;2.20;0.45;;;;;;;17.24;69.64;100722.75;4898844;29;20072;-93
2021/12/12 05:43:05;;;;;;;2.25;0.32;;;;;;;17.24;69.90;100725.41;4898861;29;20043;-93
2021/12/12 05:45:33;;;;;;;3.00;0.93;;;;;;;17.22;69.84;100730.03;4898631;29;20029;-93
2021/12/12 05:47:59;;;;;;;6.75;1.50;;;;;;;17.21;69.71;100736.28;4898834;29;20036;-93
2021/12/12 05:50:25;;;;;;;7.60;1.23;;;;;;;17.22;69.61;100735.31;4898926;29;20037;-94
2021/12/12 05:52:54;;;;;;;8.48;1.10;;;;;;;17.22;69.66;100740.63;4898824;29;20032;-93
2021/12/12 05:55:22;;;;;;;5.28;0.80;;;;;;;17.26;69.68;100736.72;4898680;29;20391;-93
2021/12/12 05:57:54;;;;;;;5.00;1.00;;;;;;;17.26;69.32;100747.34;4896596;29;20101;-92
2021/12/12 06:00:23;;;;;;;6.28;1.00;;;;;;;17.23;69.76;100742.28;4898160;29;20049;-94
2021/12/12 06:02:49;;;;;;;5.93;1.20;;;;;;;17.32;69.08;100746.78;4898713;29;20391;-93
2021/12/12 06:05:14;;;;;;;5.50;1.23;;;;;;;17.23;69.44;100747.59;4897341;29;20032;-93
2021/12/12 06:07:41;;;;;;;4.90;0.60;;;;;;;17.32;69.15;100749.44;4898506;29;20022;-93
2021/12/12 06:10:11;;;;;;;9.43;1.08;;;;;;;17.24;69.62;100749.28;4898400;29;20036;-93
2021/12/12 06:12:37;;;;;;;5.30;1.00;;;;;;;17.24;69.58;100750.13;4897818;29;20025;-93
2021/12/12 06:15:09;;;;;;;5.90;1.00;;;;;;;17.38;69.14;100748.03;4896117;29;20458;-93
2021/12/12 06:17:36;;;;;;;6.93;1.20;;;;;;;17.29;69.02;100744.38;4897208;29;20531;-93
2021/12/12 06:20:04;;;;;;;11.95;1.10;;;;;;;17.29;68.96;100744.38;4898259;29;20500;-94
2021/12/12 06:22:29;;;;;;;8.15;1.02;;;;;;;17.32;69.68;100746.78;4898280;29;20060;-93
2021/12/12 06:24:55;;;;;;;8.70;1.20;;;;;;;17.15;69.16;100750.94;4898496;29;20024;-93
2021/12/12 06:27:22;;;;;;;6.63;1.13;;;;;;;17.21;69.09;100750.38;4898208;29;20028;-94
2021/12/12 06:29:51;;;;;;;7.55;1.40;;;;;;;16.99;69.91;100754.16;4898237;29;20041;-94
2021/12/12 06:32:18;;;;;;;8.35;1.27;;;;;;;17.07;69.70;100753.47;4898234;29;20475;-93
2021/12/12 06:34:45;;;;;;;8.38;1.40;;;;;;;17.16;69.56;100749.13;4897665;29;20037;-93
2021/12/12 06:37:11;;;;;;;9.65;1.42;;;;;;;17.04;69.63;100761.69;4898324;29;20032;-95
2021/12/12 06:39:38;;;;;;;31.55;1.98;;;;;;;17.21;69.09;100754.88;4898149;29;20072;-94
2021/12/12 06:42:05;;;;;;;11.57;1.60;;;;;;;17.11;69.20;100757.50;4898345;29;20037;-93
2021/12/12 06:44:31;;;;;;;7.70;1.70;;;;;;;17.03;69.49;100767.97;4895228;29;20032;-94
2021/12/12 06:46:59;;;;;;;10.88;2.97;;;;;;;17.09;69.55;100767.41;4898329;29;20044;-93
2021/12/12 06:49:25;;;;;;;12.02;1.95;;;;;;;16.91;69.68;100764.59;4898216;29;20439;-93
2021/12/12 06:51:55;;;;;;;11.77;1.50;;;;;;;17.19;68.76;100764.78;4896817;29;20491;-93
2021/12/12 06:54:24;;;;;;;8.95;1.52;;;;;;;17.15;68.88;100768.69;4897925;29;20089;-93
2021/12/12 06:56:52;;;;;;;13.85;1.63;;;;;;;17.17;68.73;100764.09;4897936;29;20016;-93
2021/12/12 06:59:20;;;;;;;9.13;1.73;;;;;;;17.14;69.25;100772.31;4897213;29;20488;-93
2021/12/12 07:01:45;;;;;;;10.20;1.50;;;;;;;17.22;68.92;100773.31;4897700;29;20502;-93
2021/12/12 07:04:13;;;;;;;10.13;2.38;;;;;;;17.21;68.89;100776.94;4898184;29;20041;-92
2021/12/12 07:06:39;;;;;;;14.73;2.53;;;;;;;17.17;68.99;100778.19;4898552;29;20116;-93
2021/12/12 07:09:09;;;;;;;22.10;2.03;;;;;;;17.15;68.83;100779.31;4897551;29;20036;-93
2021/12/12 07:11:37;;;;;;;12.45;1.58;;;;;;;17.16;69.10;100788.91;4898274;29;20483;-94
2021/12/12 07:14:05;;;;;;;15.85;1.90;;;;;;;17.04;69.14;100785.56;4897599;29;20076;-93
2021/12/12 07:16:31;;;;;;;20.05;2.30;;;;;;;17.19;68.53;100780.69;4898341;29;20032;-93
2021/12/12 07:18:57;;;;;;;12.43;2.38;;;;;;;17.14;68.74;100791.75;4897747;29;20043;-94
2021/12/12 07:21:24;;;;;;;18.98;2.63;;;;;;;16.99;68.89;100788.63;4900093;29;20032;-94
2021/12/12 07:23:51;;;;;;;16.02;2.13;;;;;;;17.03;68.72;100795.34;4901459;29;20043;-93
2021/12/12 07:26:19;;;;;;;15.05;1.90;;;;;;;17.14;68.80;100797.03;4901423;29;20040;-93
2021/12/12 07:28:45;;;;;;;17.63;2.53;;;;;;;17.16;68.85;100794.22;4901220;29;20030;-94
2021/12/12 07:31:15;;;;;;;17.75;1.63;;;;;;;17.18;68.58;100797.59;4900251;29;20115;-94
2021/12/12 07:33:43;;;;;;;9.18;1.60;;;;;;;17.15;68.66;100795.22;4900843;29;20037;-93
2021/12/12 07:36:12;;;;;;;10.20;1.73;;;;;;;17.04;68.51;100804.97;4901336;29;20039;-94
2021/12/12 07:38:43;;;;;;;11.32;1.75;;;;;;;17.14;68.81;100814.75;4901380;29;20027;-93
2021/12/12 07:41:09;;;;;;;9.48;1.23;;;;;;;17.12;68.05;100811.41;4900314;29;20039;-94
2021/12/12 07:43:36;;;;;;;10.43;1.63;;;;;;;17.12;68.30;100816.72;4900537;29;20047;-93
2021/12/12 07:46:04;;;;;;;11.88;1.95;;;;;;;16.89;69.04;100811.63;4901228;29;20092;-94
2021/12/12 07:48:31;;;;;;;10.93;1.88;;;;;;;17.00;68.93;100819.50;4900768;29;20029;-93
2021/12/12 07:50:56;;;;;;;10.15;1.90;;;;;;;16.90;68.92;100821.25;4901302;29;20033;-94
2021/12/12 07:53:25;;;;;;;7.25;1.38;;;;;;;17.03;68.77;100821.88;4900709;29;20039;-93
2021/12/12 07:55:54;;;;;;;11.35;1.63;;;;;;;17.03;68.73;100827.16;4899923;29;20116;-93
2021/12/12 07:58:19;;;;;;;7.20;1.67;;;;;;;17.04;68.63;100818.25;4899780;29;20036;-93
2021/12/12 08:00:47;;;;;;;10.68;2.25;;;;;;;16.93;68.25;100817.53;4901235;29;20126;-93
2021/12/12 08:03:14;;;;;;;6.88;1.63;;;;;;;17.08;68.10;100815.31;4900563;29;20033;-94
2021/12/12 08:05:40;;;;;;;12.55;1.65;;;;;;;16.99;68.58;100819.63;4901086;29;20034;-94
2021/12/12 08:08:10;;;;;;;14.95;2.90;;;;;;;17.02;68.60;100825.50;4900873;29;20040;-94
2021/12/12 08:10:38;;;;;;;11.02;1.48;;;;;;;17.03;68.06;100826.34;4899997;29;20547;-93
2021/12/12 08:13:05;;;;;;;12.88;1.85;;;;;;;17.05;68.01;100825.22;4900728;29;20381;-93
2021/12/12 08:15:31;;;;;;;10.60;2.92;;;;;;;16.99;68.36;100828.41;4904135;29;20107;-94
2021/12/12 08:17:59;;;;;;;13.07;2.20;;;;;;;16.94;68.44;100835.09;4900743;29;20117;-93
2021/12/12 08:20:27;;;;;;;9.98;1.42;;;;;;;17.04;68.39;100831.50;4900876;29;20037;-93
2021/12/12 08:22:53;;;;;;;14.32;2.50;;;;;;;17.03;68.28;100843.09;4900329;29;20032;-93
2021/12/12 08:25:20;;;;;;;14.68;1.67;;;;;;;17.01;68.39;100838.91;4900401;29;20080;-93
2021/12/12 08:27:46;;;;;;;5.28;1.45;;;;;;;17.10;68.47;100840.75;4899681;29;20112;-93
2021/12/12 08:30:15;;;;;;;9.60;1.77;;;;;;;17.05;68.20;100849.09;4899926;29;20100;-91
2021/12/12 08:32:45;;;;;;;11.43;2.08;;;;;;;17.10;68.53;100853.16;4900603;29;20107;-95
2021/12/12 08:35:12;;;;;;;13.57;1.35;;;;;;;17.02;68.06;100849.38;4899229;29;20390;-91
2021/12/12 08:37:40;;;;;;;15.00;2.20;;;;;;;17.16;67.84;100863.22;4894976;29;20016;-96
2021/12/12 08:40:09;;;;;;;8.52;1.55;;;;;;;17.15;67.91;100865.03;4907340;29;20012;-96
2021/12/12 08:42:35;;;;;;;4.63;0.95;;;;;;;17.09;67.92;100856.78;5086138;23;20044;-96
2021/12/12 08:45:05;;;;;;;8.50;2.00;;;;;;;17.04;68.76;100883.72;4899211;29;20036;-91
2021/12/12 08:47:34;;;;;;;8.13;1.48;;;;;;;17.20;67.52;100873.44;4890531;29;20115;-91
2021/12/12 08:50:01;;;;;;;10.23;1.67;;;;;;;17.21;67.95;100876.94;4898742;29;20033;-91
2021/12/12 08:52:34;;;;;;;8.52;1.73;;;;;;;17.25;67.80;100873.84;4898887;29;20506;-91
2021/12/12 08:55:01;;;;;;;7.95;1.42;;;;;;;17.23;67.62;100877.63;4893955;29;20033;-90
2021/12/12 08:57:38;;;;;;;10.30;1.70;;;;;;;17.13;68.15;100882.91;4897749;29;20025;-95
2021/12/12 09:00:10;;;;;;;13.88;2.53;;;;;;;17.14;67.79;100887.25;4900095;29;20060;-93
2021/12/12 09:02:37;;;;;;;8.68;1.52;;;;;;;17.18;68.30;100887.81;4900042;29;20479;-95
2021/12/12 09:05:09;;;;;;;8.13;1.45;;;;;;;17.13;68.07;100887.38;4899319;29;20052;-94
2021/12/12 09:07:44;;;;;;;7.53;1.30;;;;;;;17.19;68.14;100884.19;4899739;29;20020;-94
2021/12/12 09:10:16;;;;;;;9.77;1.42;;;;;;;17.13;68.81;100896.19;4898263;29;20613;-94
2021/12/12 09:12:48;;;;;;;12.35;1.90;;;;;;;17.16;68.66;100895.06;4898965;29;20079;-94
2021/12/12 09:15:26;;;;;;;9.32;1.33;;;;;;;17.27;68.17;100897.63;4899410;29;20035;-94
2021/12/12 09:17:57;;;;;;;10.40;1.95;;;;;;;17.19;68.26;100908.06;4899431;29;20119;-94
2021/12/12 09:20:46;;;;;;;13.93;2.03;;;;;;;17.30;67.45;100913.28;4899301;29;20080;-94
2021/12/12 09:23:20;;;;;;;7.32;1.50;;;;;;;17.33;67.71;100915.66;4898158;29;20052;-94
2021/12/12 09:25:56;;;;;;;11.98;1.73;;;;;;;17.34;68.09;100917.34;4897638;29;20111;-95
2021/12/12 09:28:49;;;;;;;13.15;1.75;;;;;;;17.41;67.93;100913.16;4899004;29;20029;-92
2021/12/12 09:31:26;;;;;;;13.15;2.30;;;;;;;17.34;67.29;100917.34;4890685;29;20043;-92
2021/12/12 09:34:25;;;;;;;13.60;1.58;;;;;;;17.20;68.15;100917.69;4900188;29;20084;-93
2021/12/12 09:36:58;;;;;;;13.48;1.73;;;;;;;17.28;67.80;100925.84;4880688;29;20093;-94
2021/12/12 09:39:29;;;;;;;17.02;1.95;;;;;;;17.32;68.21;100916.63;4896552;29;20080;-94
2021/12/12 09:42:13;;;;;;;6.75;1.02;;;;;;;17.41;67.73;100923.75;4900926;29;20025;-91
2021/12/12 09:44:56;;;;;;;6.43;1.27;;;;;;;17.43;67.81;100924.47;4897965;29;20056;-94
2021/12/12 09:47:59;;;;;;;8.80;1.83;;;;;;;17.62;67.32;100931.66;4898253;29;20021;-91
2021/12/12 09:51:15;;;;;;;10.38;1.90;;;;;;;17.51;67.51;100922.97;4897446;29;20483;-92
2021/12/12 09:54:02;;;;;;;6.65;1.83;;;;;;;17.60;67.45;100928.28;4890363;29;20032;-92
2021/12/12 09:56:56;;;;;;;11.32;2.05;;;;;;;17.41;68.25;100926.41;4897876;29;20498;-92
2021/12/12 09:59:42;;;;;;;7.10;1.38;;;;;;;17.89;66.55;100929.31;4897839;29;20503;-90
2021/12/12 10:02:08;;;;;;;16.42;1.92;;;;;;;17.79;66.53;100940.75;4898551;29;20039;-92
2021/12/12 10:05:23;;;;;;;10.32;1.60;;;;;;;17.88;66.77;100946.25;4897615;29;20099;-91
2021/12/12 10:07:51;;;;;;;8.38;1.85;;;;;;;17.89;66.22;100945.25;4885618;29;20052;-91
2021/12/12 10:10:28;;;;;;;9.20;1.83;;;;;;;17.99;66.01;100954.06;4887315;29;20039;-90
2021/12/12 10:13:26;;;;;;;6.32;2.03;;;;;;;18.00;65.18;100948.63;4897162;29;20053;-88
2021/12/12 10:15:56;;;;;;;7.00;1.27;;;;;;;17.90;66.33;100955.75;4897339;29;20364;-94
2021/12/12 10:18:28;;;;;;;10.77;1.90;;;;;;;17.96;66.04;100965.00;4896255;29;20028;-89
2021/12/12 10:21:01;;;;;;;9.60;1.65;;;;;;;17.67;66.80;100968.41;4897720;29;20043;-89
2021/12/12 10:23:39;;;;;;;11.02;1.83;;;;;;;17.66;67.30;100972.03;4896873;29;20028;-89
2021/12/12 10:26:15;;;;;;;12.55;1.73;;;;;;;17.50;67.55;100964.59;4896684;29;20040;-90
2021/12/12 10:28:49;;;;;;;6.45;1.48;;;;;;;17.75;67.41;100965.94;4897195;29;20033;-88
2021/12/12 10:31:35;;;;;;;7.45;1.42;;;;;;;17.75;67.14;100960.63;4898575;29;20033;-92
2021/12/12 10:34:08;;;;;;;9.60;1.25;;;;;;;17.91;66.75;100961.91;4901299;29;20028;-93
2021/12/12 10:36:36;;;;;;;6.15;1.30;;;;;;;17.84;67.31;100959.81;4897180;29;20031;-94
2021/12/12 10:39:08;;;;;;;7.28;1.48;;;;;;;18.04;66.53;100960.66;4898665;29;20020;-95
2021/12/12 10:41:42;;;;;;;6.97;1.25;;;;;;;18.11;66.75;100960.94;4897819;29;20012;-93
2021/12/12 10:44:16;;;;;;;10.02;2.08;;;;;;;18.10;67.03;100958.44;4892072;29;20028;-93
2021/12/12 10:46:55;;;;;;;5.72;1.20;;;;;;;17.92;67.10;100953.78;4894139;29;20111;-93
2021/12/12 10:49:51;;;;;;;7.63;1.45;;;;;;;17.79;67.50;100967.31;4897016;29;20080;-93
2021/12/12 10:52:25;;;;;;;9.13;1.50;;;;;;;17.82;67.00;100956.41;4897277;29;20040;-92
2021/12/12 10:55:05;;;;;;;9.90;1.88;;;;;;;17.75;67.69;100951.78;4900192;29;20032;-91
2021/12/12 10:57:34;;;;;;;6.50;1.58;;;;;;;17.83;67.25;100958.13;4901824;29;20435;-93
2021/12/12 11:00:11;;;;;;;9.55;1.40;;;;;;;17.43;67.72;100961.63;4901372;29;20041;-91
2021/12/12 11:02:48;;;;;;;8.48;1.42;;;;;;;17.49;68.22;100954.94;4901277;29;20028;-92
2021/12/12 11:05:21;;;;;;;12.05;1.98;;;;;;;17.52;67.99;100949.38;4901769;29;20036;-91
2021/12/12 11:07:53;;;;;;;7.35;1.80;;;;;;;17.44;68.16;100952.72;4900862;29;20100;-92
2021/12/12 11:10:26;;;;;;;11.63;1.95;;;;;;;17.24;68.60;100951.81;4900945;29;20029;-92
2021/12/12 11:12:57;;;;;;;15.38;2.08;;;;;;;17.37;68.95;100956.03;4901053;29;20024;-92
2021/12/12 11:15:50;;;;;;;12.10;1.77;;;;;;;17.78;67.31;100949.69;4900528;29;20416;-92
2021/12/12 11:18:28;;;;;;;10.93;1.90;;;;;;;17.83;67.48;100946.63;4891709;29;20079;-91
2021/12/12 11:21:08;;;;;;;11.23;1.88;;;;;;;17.92;67.57;100945.00;4900504;29;20119;-92
2021/12/12 11:23:50;;;;;;;10.48;2.30;;;;;;;18.53;67.78;100949.16;4900312;29;20040;-91
2021/12/12 11:26:22;;;;;;;13.18;2.25;;;;;;;19.46;66.07;100954.59;4900829;29;20033;-91
2021/12/12 11:28:53;;;;;;;11.98;2.42;;;;;;;20.21;64.76;100947.22;4900275;29;20028;-91
2021/12/12 11:31:24;;;;;;;8.50;1.75;;;;;;;19.96;63.09;100948.81;4900190;29;20527;-92
2021/12/12 11:33:52;;;;;;;8.97;1.70;;;;;;;20.53;62.09;100946.63;4900480;29;20025;-93
2021/12/12 11:36:24;;;;;;;13.38;2.95;;;;;;;20.65;61.02;100946.41;4898841;29;20494;-95
2021/12/12 11:38:59;;;;;;;8.55;1.67;;;;;;;21.12;59.66;100940.66;4900459;29;20020;-93
2021/12/12 11:41:57;;;;;;;10.82;2.08;;;;;;;21.02;59.27;100946.13;4899515;29;20032;-92
2021/12/12 11:44:38;;;;;;;5.47;1.20;;;;;;;20.87;58.93;100947.69;4900525;29;20066;-93
2021/12/12 11:47:41;;;;;;;8.32;1.58;;;;;;;20.51;59.78;100945.94;4902418;29;20088;-95
2021/12/12 11:50:10;;;;;;;;;;;;;;;20.48;58.31;100948.94;4899140;29;20111;-94
2021/12/12 11:52:52;;;;;;;3.10;0.90;;;;;;;20.65;59.13;100941.06;4903184;29;19955;-92
2021/12/12 11:55:44;;;;;;;3.90;0.93;;;;;;;19.82;60.30;100944.84;4903785;29;20025;-92
2021/12/12 11:58:15;;;;;;;;;;;;;;;19.74;61.27;100939.44;4900692;29;20047;-95
2021/12/12 12:00:49;;;;;;;4.40;0.55;;;;;;;19.61;60.35;100943.28;4901504;29;19926;-94